createdAt,value
2023-03-05T00:01:18.508Z,2.30
2023-03-05T00:03:49.512Z,2.32
2023-03-05T00:06:28.517Z,2.31
2023-03-05T00:08:58.239Z,2.29
2023-03-05T00:11:29.719Z,2.24
2023-03-05T00:13:56.986Z,2.11
2023-03-05T00:16:26.658Z,2.00
2023-03-05T00:18:54.550Z,2.01
2023-03-05T00:21:34.369Z,1.98
2023-03-05T00:24:02.401Z,2.02
2023-03-05T00:26:29.974Z,2.05
2023-03-05T00:28:58.293Z,2.07
2023-03-05T00:31:30.377Z,2.06
2023-03-05T00:34:00.216Z,2.11
2023-03-05T00:36:27.357Z,2.09
2023-03-05T00:38:54.363Z,2.09
2023-03-05T00:41:24.479Z,2.12
2023-03-05T00:43:51.089Z,2.10
2023-03-05T00:46:18.379Z,2.12
2023-03-05T00:48:47.635Z,2.14
2023-03-05T00:51:14.939Z,2.16
2023-03-05T00:53:41.470Z,2.12
2023-03-05T00:56:10.723Z,2.14
2023-03-05T00:58:37.781Z,2.13
2023-03-05T01:01:05.607Z,2.13
2023-03-05T01:03:33.405Z,2.12
2023-03-05T01:06:01.076Z,2.09
2023-03-05T01:08:28.251Z,2.03
2023-03-05T01:10:58.146Z,2.04
2023-03-05T01:13:24.690Z,2.03
2023-03-05T01:15:51.620Z,2.01
2023-03-05T01:18:19.615Z,2.03
2023-03-05T01:20:56.036Z,2.00
2023-03-05T01:23:22.754Z,2.10
2023-03-05T01:26:00.031Z,2.01
2023-03-05T01:28:27.593Z,2.00
2023-03-05T01:30:54.150Z,1.96
2023-03-05T01:33:20.644Z,1.99
2023-03-05T01:35:49.180Z,1.98
2023-03-05T01:38:16.977Z,1.99
2023-03-05T01:40:47.191Z,1.99
2023-03-05T01:43:13.927Z,2.00
2023-03-05T01:46:29.768Z,2.01
2023-03-05T01:49:12.488Z,2.03
2023-03-05T01:51:50.134Z,1.98
2023-03-05T01:54:26.559Z,2.00
2023-03-05T01:56:55.890Z,2.01
2023-03-05T01:59:25.447Z,2.01
2023-03-05T02:01:55.776Z,2.00
2023-03-05T02:04:29.937Z,2.02
2023-03-05T02:06:59.884Z,2.00
2023-03-05T02:09:28.692Z,2.00
2023-03-05T02:12:02.578Z,2.01
2023-03-05T02:14:29.216Z,2.00
2023-03-05T02:16:55.732Z,2.01
2023-03-05T02:19:22.238Z,2.01
2023-03-05T02:21:49.960Z,2.00
2023-03-05T02:24:31.856Z,2.03
2023-03-05T02:26:58.641Z,2.06
2023-03-05T02:29:25.081Z,2.04
2023-03-05T02:31:54.927Z,2.09
2023-03-05T02:34:27.583Z,2.07
2023-03-05T02:36:55.575Z,2.08
2023-03-05T02:39:22.320Z,2.08
2023-03-05T02:41:48.817Z,2.09
2023-03-05T02:44:15.443Z,2.11
2023-03-05T02:46:42.035Z,2.08
2023-03-05T02:49:08.508Z,2.02
2023-03-05T02:51:35.084Z,2.05
2023-03-05T02:54:01.549Z,2.07
2023-03-05T02:56:28.007Z,2.06
2023-03-05T02:58:54.523Z,2.05
2023-03-05T03:01:21.093Z,2.06
2023-03-05T03:03:47.745Z,2.07
2023-03-05T03:06:17.057Z,2.07
2023-03-05T03:08:43.573Z,2.07
2023-03-05T03:11:14.567Z,2.07
2023-03-05T03:13:41.707Z,2.07
2023-03-05T03:16:12.034Z,2.10
2023-03-05T03:18:38.686Z,2.10
2023-03-05T03:21:05.680Z,2.15
2023-03-05T03:23:32.970Z,2.10
2023-03-05T03:25:59.786Z,2.10
2023-03-05T03:28:26.428Z,2.06
2023-03-05T03:30:52.933Z,2.01
2023-03-05T03:33:19.555Z,2.00
2023-03-05T03:35:46.570Z,2.01
2023-03-05T03:38:13.914Z,2.04
2023-03-05T03:40:43.539Z,2.01
2023-03-05T03:43:10.061Z,2.07
2023-03-05T03:45:40.746Z,2.04
2023-03-05T03:48:07.266Z,2.08
2023-03-05T03:50:33.755Z,2.08
2023-03-05T03:53:00.388Z,1.95
2023-03-05T03:55:26.901Z,1.91
2023-03-05T03:57:53.986Z,1.91
2023-03-05T04:00:24.023Z,1.88
2023-03-05T04:02:50.537Z,1.88
2023-03-05T04:05:17.393Z,1.88
2023-03-05T04:07:45.300Z,1.85
2023-03-05T04:10:12.646Z,1.88
2023-03-05T04:12:40.544Z,1.88
2023-03-05T04:15:08.014Z,1.87
2023-03-05T04:17:34.520Z,1.89
2023-03-05T04:20:01.413Z,1.88
2023-03-05T04:22:28.165Z,1.90
2023-03-05T04:24:54.856Z,1.91
2023-03-05T04:27:21.357Z,1.91
2023-03-05T04:29:47.849Z,1.89
2023-03-05T04:32:14.602Z,1.89
2023-03-05T04:34:41.184Z,1.90
2023-03-05T04:37:07.667Z,1.87
2023-03-05T04:39:34.241Z,1.85
2023-03-05T04:42:00.736Z,1.82
2023-03-05T04:44:27.286Z,1.81
2023-03-05T04:46:53.740Z,1.80
2023-03-05T04:49:20.320Z,1.80
2023-03-05T04:51:46.946Z,1.78
2023-03-05T04:54:13.460Z,1.78
2023-03-05T04:56:39.914Z,1.82
2023-03-05T04:59:06.422Z,1.81
2023-03-05T05:01:35.149Z,1.80
2023-03-05T05:04:02.056Z,1.84
2023-03-05T05:06:28.561Z,1.89
2023-03-05T05:08:55.245Z,1.89
2023-03-05T05:11:21.739Z,1.91
2023-03-05T05:13:48.260Z,1.92
2023-03-05T05:16:15.579Z,1.85
2023-03-05T05:18:42.378Z,1.78
2023-03-05T05:21:11.141Z,1.77
2023-03-05T05:23:37.700Z,1.70
2023-03-05T05:26:06.953Z,1.68
2023-03-05T05:28:34.460Z,1.70
2023-03-05T05:31:01.093Z,1.75
2023-03-05T05:33:27.660Z,1.80
2023-03-05T05:35:54.210Z,1.82
2023-03-05T05:38:21.237Z,1.81
2023-03-05T05:40:47.748Z,1.80
2023-03-05T05:43:14.311Z,1.84
2023-03-05T05:45:40.995Z,1.85
2023-03-05T05:48:07.679Z,1.85
2023-03-05T05:50:34.274Z,1.86
2023-03-05T05:53:00.723Z,1.89
2023-03-05T05:55:27.247Z,1.85
2023-03-05T05:57:53.712Z,1.85
2023-03-05T06:00:20.608Z,1.83
2023-03-05T06:02:47.206Z,1.83
2023-03-05T06:05:15.059Z,1.84
2023-03-05T06:07:41.801Z,1.83
2023-03-05T06:10:09.934Z,1.86
2023-03-05T06:12:36.434Z,1.84
2023-03-05T06:15:02.953Z,1.84
2023-03-05T06:17:31.025Z,1.89
2023-03-05T06:19:58.811Z,1.90
2023-03-05T06:22:25.546Z,1.89
2023-03-05T06:24:52.103Z,1.89
2023-03-05T06:27:18.695Z,1.91
2023-03-05T06:29:45.140Z,1.91
2023-03-05T06:32:14.951Z,1.92
2023-03-05T06:34:41.415Z,1.92
2023-03-05T06:37:07.900Z,1.94
2023-03-05T06:39:34.478Z,1.96
2023-03-05T06:42:00.938Z,1.98
2023-03-05T06:44:27.476Z,2.02
2023-03-05T06:46:54.220Z,2.04
2023-03-05T06:49:20.864Z,2.08
2023-03-05T06:51:47.557Z,2.09
2023-03-05T06:54:16.383Z,2.09
2023-03-05T06:56:45.486Z,2.09
2023-03-05T06:59:13.797Z,2.14
2023-03-05T07:01:42.397Z,2.12
2023-03-05T07:04:09.648Z,2.20
2023-03-05T07:06:42.161Z,2.20
2023-03-05T07:09:12.942Z,2.21
2023-03-05T07:11:39.425Z,2.19
2023-03-05T07:14:05.902Z,2.23
2023-03-05T07:16:33.916Z,2.23
2023-03-05T07:19:04.102Z,2.24
2023-03-05T07:21:33.602Z,2.28
2023-03-05T07:24:01.941Z,2.29
2023-03-05T07:26:28.722Z,2.28
2023-03-05T07:28:55.588Z,2.31
2023-03-05T07:31:27.287Z,2.34
2023-03-05T07:33:54.113Z,2.37
2023-03-05T07:36:21.317Z,2.38
2023-03-05T07:38:47.847Z,2.41
2023-03-05T07:41:20.131Z,2.39
2023-03-05T07:43:48.954Z,2.42
2023-03-05T07:46:18.934Z,2.40
2023-03-05T07:48:48.248Z,2.40
2023-03-05T07:51:18.347Z,2.37
2023-03-05T07:53:46.607Z,2.37
2023-03-05T07:56:13.621Z,2.32
2023-03-05T07:58:40.158Z,2.33
2023-03-05T08:01:13.923Z,2.38
2023-03-05T08:03:41.499Z,2.43
2023-03-05T08:06:09.082Z,2.44
2023-03-05T08:08:36.270Z,2.45
2023-03-05T08:11:04.648Z,2.43
2023-03-05T08:13:31.348Z,2.47
2023-03-05T08:15:58.108Z,2.50
2023-03-05T08:18:24.976Z,2.55
2023-03-05T08:20:51.412Z,2.63
2023-03-05T08:23:17.906Z,2.61
2023-03-05T08:25:44.514Z,2.67
2023-03-05T08:28:11.054Z,2.66
2023-03-05T08:30:43.026Z,2.70
2023-03-05T08:33:09.495Z,2.73
2023-03-05T08:35:36.064Z,2.77
2023-03-05T08:38:02.552Z,2.80
2023-03-05T08:40:29.057Z,2.78
2023-03-05T08:42:55.624Z,2.80
2023-03-05T08:45:22.161Z,2.76
2023-03-05T08:47:49.810Z,2.80
2023-03-05T08:50:17.864Z,2.81
2023-03-05T08:52:44.649Z,2.83
2023-03-05T08:55:12.711Z,2.89
2023-03-05T08:57:39.174Z,3.00
2023-03-05T09:00:07.341Z,3.02
2023-03-05T09:02:37.203Z,2.97
2023-03-05T09:05:04.350Z,2.95
2023-03-05T09:07:30.775Z,2.94
2023-03-05T09:09:57.270Z,2.86
2023-03-05T09:12:23.753Z,2.86
2023-03-05T09:14:50.291Z,2.89
2023-03-05T09:17:16.742Z,2.84
2023-03-05T09:19:43.880Z,2.79
2023-03-05T09:22:10.361Z,2.76
2023-03-05T09:24:36.889Z,2.89
2023-03-05T09:27:03.444Z,2.96
2023-03-05T09:29:31.332Z,3.03
2023-03-05T09:31:58.059Z,2.97
2023-03-05T09:34:24.753Z,2.91
2023-03-05T09:36:51.278Z,2.78
2023-03-05T09:39:17.802Z,2.78
2023-03-05T09:42:02.217Z,2.74
2023-03-05T09:45:02.210Z,2.77
2023-03-05T09:48:01.466Z,2.74
2023-03-05T09:50:42.077Z,2.74
2023-03-05T09:53:20.551Z,2.79
2023-03-05T09:55:53.768Z,2.86
2023-03-05T09:58:36.923Z,2.98
2023-03-05T10:01:15.495Z,2.98
2023-03-05T10:04:12.488Z,2.97
2023-03-05T10:06:57.841Z,2.91
2023-03-05T10:09:49.262Z,2.87
2023-03-05T10:12:39.029Z,2.85
2023-03-05T10:15:15.744Z,2.81
2023-03-05T10:18:00.889Z,2.79
2023-03-05T10:20:46.050Z,2.84
2023-03-05T10:23:20.958Z,2.95
2023-03-05T10:26:06.185Z,3.12
2023-03-05T10:28:51.399Z,3.10
2023-03-05T10:31:38.168Z,3.01
2023-03-05T10:34:33.777Z,2.99
2023-03-05T10:37:14.830Z,2.94
2023-03-05T10:39:44.433Z,2.90
2023-03-05T10:42:16.243Z,2.88
2023-03-05T10:45:14.030Z,2.85
2023-03-05T10:47:59.429Z,2.69
2023-03-05T10:50:36.832Z,2.42
2023-03-05T10:53:19.746Z,2.37
2023-03-05T10:55:46.239Z,2.35
2023-03-05T10:58:15.111Z,2.32
2023-03-05T11:01:17.651Z,2.27
2023-03-05T11:04:07.712Z,2.18
2023-03-05T11:06:42.933Z,2.18
2023-03-05T11:09:18.057Z,2.28
2023-03-05T11:12:02.478Z,2.40
2023-03-05T11:14:33.126Z,2.53
2023-03-05T11:17:01.812Z,2.79
2023-03-05T11:19:33.287Z,2.99
2023-03-05T11:22:21.030Z,3.19
2023-03-05T11:25:06.026Z,3.33
2023-03-05T11:27:37.458Z,3.36
2023-03-05T11:30:18.194Z,3.35
2023-03-05T11:32:44.631Z,3.33
2023-03-05T11:35:32.996Z,3.27
2023-03-05T11:38:04.826Z,3.25
2023-03-05T11:40:36.052Z,3.30
2023-03-05T11:43:04.701Z,3.29
2023-03-05T11:45:33.083Z,3.32
2023-03-05T11:48:15.741Z,3.44
2023-03-05T11:50:45.108Z,3.51
2023-03-05T11:53:25.665Z,3.65
2023-03-05T11:56:00.391Z,3.74
2023-03-05T11:58:39.251Z,3.91
2023-03-05T12:01:16.597Z,4.09
2023-03-05T12:03:44.007Z,4.08
2023-03-05T12:06:16.993Z,4.40
2023-03-05T12:08:49.077Z,4.62
2023-03-05T12:11:26.951Z,4.23
2023-03-05T12:14:20.783Z,4.07
2023-03-05T12:17:07.521Z,3.89
2023-03-05T12:19:47.210Z,3.83
2023-03-05T12:22:22.059Z,3.66
2023-03-05T12:24:49.268Z,3.64
2023-03-05T12:27:32.079Z,3.60
2023-03-05T12:30:01.784Z,3.62
2023-03-05T12:32:35.169Z,3.63
2023-03-05T12:35:22.480Z,3.61
2023-03-05T12:37:51.927Z,3.60
2023-03-05T12:40:34.548Z,3.66
2023-03-05T12:43:06.732Z,3.78
2023-03-05T12:45:40.949Z,3.85
2023-03-05T12:48:12.462Z,3.92
2023-03-05T12:50:38.945Z,3.88
2023-03-05T12:53:18.541Z,3.84
2023-03-05T12:55:47.821Z,3.82
2023-03-05T12:58:45.140Z,3.78
2023-03-05T13:01:12.774Z,3.75
2023-03-05T13:03:45.467Z,3.72
2023-03-05T13:06:27.720Z,3.69
2023-03-05T13:09:04.518Z,3.61
2023-03-05T13:11:34.447Z,3.62
2023-03-05T13:14:02.621Z,3.57
2023-03-05T13:16:37.746Z,3.54
2023-03-05T13:19:14.944Z,3.62
2023-03-05T13:21:41.608Z,3.71
2023-03-05T13:24:17.465Z,3.86
2023-03-05T13:26:46.857Z,4.01
2023-03-05T13:29:18.945Z,4.20
2023-03-05T13:31:59.147Z,4.16
2023-03-05T13:34:37.412Z,4.17
2023-03-05T13:37:22.417Z,4.22
2023-03-05T13:40:02.079Z,4.20
2023-03-05T13:42:34.718Z,4.21
2023-03-05T13:45:04.982Z,4.20
2023-03-05T13:47:34.616Z,4.20
2023-03-05T13:50:07.358Z,4.23
2023-03-05T13:52:36.751Z,4.25
2023-03-05T13:55:12.061Z,4.35
2023-03-05T13:57:40.329Z,4.42
2023-03-05T14:00:25.993Z,4.46
2023-03-05T14:02:58.606Z,4.57
2023-03-05T14:05:26.674Z,4.57
2023-03-05T14:07:53.730Z,4.52
2023-03-05T14:10:43.102Z,4.59
2023-03-05T14:13:18.268Z,4.50
2023-03-05T14:16:06.376Z,4.49
2023-03-05T14:18:33.493Z,4.44
2023-03-05T14:21:09.060Z,4.40
2023-03-05T14:23:40.570Z,4.37
2023-03-05T14:26:29.387Z,4.31
2023-03-05T14:29:15.424Z,4.27
2023-03-05T14:31:51.143Z,4.24
2023-03-05T14:34:24.364Z,4.20
2023-03-05T14:36:55.698Z,4.19
2023-03-05T14:39:31.042Z,4.17
2023-03-05T14:42:34.148Z,4.25
2023-03-05T14:45:10.322Z,4.28
2023-03-05T14:47:36.830Z,4.30
2023-03-05T14:50:04.846Z,4.37
2023-03-05T14:52:31.682Z,4.35
2023-03-05T14:54:58.298Z,4.27
2023-03-05T14:57:30.981Z,4.27
2023-03-05T14:59:57.452Z,4.24
2023-03-05T15:02:26.160Z,4.23
2023-03-05T15:04:52.934Z,4.23
2023-03-05T15:07:25.292Z,4.23
2023-03-05T15:09:51.792Z,4.20
2023-03-05T15:12:18.848Z,4.17
2023-03-05T15:14:45.392Z,4.17
2023-03-05T15:17:39.671Z,4.20
2023-03-05T15:20:09.937Z,4.20
2023-03-05T15:22:37.587Z,4.20
2023-03-05T15:25:04.326Z,4.18
2023-03-05T15:27:30.934Z,4.17
2023-03-05T15:29:58.956Z,4.20
2023-03-05T15:32:30.894Z,4.16
2023-03-05T15:34:58.104Z,4.11
2023-03-05T15:37:26.001Z,4.13
2023-03-05T15:39:55.976Z,4.10
2023-03-05T15:42:22.500Z,4.11
2023-03-05T15:44:49.089Z,4.11
2023-03-05T15:47:15.645Z,4.15
2023-03-05T15:49:42.115Z,4.16
2023-03-05T15:52:08.875Z,4.14
2023-03-05T15:54:36.653Z,4.14
2023-03-05T15:57:07.931Z,4.15
2023-03-05T15:59:34.440Z,4.14
2023-03-05T16:02:01.720Z,4.13
2023-03-05T16:04:31.688Z,4.10
2023-03-05T16:07:04.767Z,4.09
2023-03-05T16:09:37.223Z,4.13
2023-03-05T16:12:18.735Z,4.11
2023-03-05T16:14:46.400Z,4.11
2023-03-05T16:17:13.766Z,4.11
2023-03-05T16:19:44.077Z,4.07
2023-03-05T16:22:10.645Z,4.06
2023-03-05T16:24:37.152Z,4.04
2023-03-05T16:27:04.954Z,4.08
2023-03-05T16:29:35.157Z,4.01
2023-03-05T16:32:04.089Z,4.06
2023-03-05T16:34:34.916Z,4.02
2023-03-05T16:37:04.365Z,3.99
2023-03-05T16:39:33.572Z,3.96
2023-03-05T16:42:00.134Z,3.90
2023-03-05T16:44:26.767Z,3.88
2023-03-05T16:46:53.908Z,3.94
2023-03-05T16:49:21.214Z,3.92
2023-03-05T16:51:47.856Z,3.88
2023-03-05T16:54:16.921Z,3.90
2023-03-05T16:56:43.514Z,3.85
2023-03-05T16:59:10.034Z,3.85
2023-03-05T17:01:36.565Z,3.80
2023-03-05T17:04:03.667Z,3.80
2023-03-05T17:06:31.816Z,3.79
2023-03-05T17:09:01.965Z,3.79
2023-03-05T17:11:28.862Z,3.76
2023-03-05T17:13:55.601Z,3.74
2023-03-05T17:16:22.848Z,3.75
2023-03-05T17:18:49.454Z,3.77
2023-03-05T17:21:19.012Z,3.75
2023-03-05T17:23:45.501Z,3.72
2023-03-05T17:26:15.347Z,3.72
2023-03-05T17:28:42.196Z,3.74
2023-03-05T17:31:08.770Z,3.74
2023-03-05T17:33:35.718Z,3.73
2023-03-05T17:36:03.882Z,3.73
2023-03-05T17:38:31.162Z,3.73
2023-03-05T17:41:00.845Z,3.74
2023-03-05T17:43:27.388Z,3.74
2023-03-05T17:45:59.375Z,3.73
2023-03-05T17:48:26.448Z,3.74
2023-03-05T17:50:53.498Z,3.76
2023-03-05T17:53:20.807Z,3.74
2023-03-05T17:55:47.387Z,3.72
2023-03-05T17:58:13.870Z,3.70
2023-03-05T18:00:40.483Z,3.69
2023-03-05T18:03:06.926Z,3.69
2023-03-05T18:05:33.394Z,3.69
2023-03-05T18:08:00.855Z,3.71
2023-03-05T18:10:27.639Z,3.72
2023-03-05T18:12:54.706Z,3.74
2023-03-05T18:15:23.804Z,3.70
2023-03-05T18:17:55.826Z,3.66
2023-03-05T18:20:34.741Z,3.68
2023-03-05T18:23:02.413Z,3.67
2023-03-05T18:25:36.591Z,3.64
2023-03-05T18:28:08.865Z,3.66
2023-03-05T18:30:35.820Z,3.67
2023-03-05T18:33:02.844Z,3.66
2023-03-05T18:35:29.763Z,3.64
2023-03-05T18:37:57.295Z,3.63
2023-03-05T18:40:27.156Z,3.64
2023-03-05T18:42:53.658Z,3.63
2023-03-05T18:45:22.065Z,3.62
2023-03-05T18:47:49.116Z,3.61
2023-03-05T18:50:18.482Z,3.60
2023-03-05T18:52:45.664Z,3.59
2023-03-05T18:55:20.548Z,3.56
2023-03-05T18:57:47.055Z,3.51
2023-03-05T19:00:17.088Z,3.51
2023-03-05T19:02:43.649Z,3.49
2023-03-05T19:05:12.024Z,3.52
2023-03-05T19:07:38.618Z,3.46
2023-03-05T19:10:07.495Z,3.44
2023-03-05T19:12:45.464Z,3.40
2023-03-05T19:15:13.424Z,3.39
2023-03-05T19:17:40.463Z,3.37
2023-03-05T19:20:08.174Z,3.37
2023-03-05T19:22:34.994Z,3.34
2023-03-05T19:25:01.761Z,3.36
2023-03-05T19:27:28.826Z,3.35
2023-03-05T19:29:55.496Z,3.36
2023-03-05T19:32:23.560Z,3.38
2023-03-05T19:34:50.666Z,3.37
2023-03-05T19:37:18.173Z,3.37
2023-03-05T19:39:44.735Z,3.41
2023-03-05T19:42:11.446Z,3.40
2023-03-05T19:44:39.844Z,3.44
2023-03-05T19:47:06.515Z,3.43
2023-03-05T19:49:33.014Z,3.44
2023-03-05T19:51:59.566Z,3.46
2023-03-05T19:54:26.308Z,3.44
2023-03-05T19:56:54.905Z,3.45
2023-03-05T19:59:22.351Z,3.44
2023-03-05T20:01:49.585Z,3.44
2023-03-05T20:04:19.548Z,3.47
2023-03-05T20:06:46.860Z,3.44
2023-03-05T20:09:14.453Z,3.42
2023-03-05T20:11:41.062Z,3.39
2023-03-05T20:14:07.931Z,3.38
2023-03-05T20:16:36.570Z,3.40
2023-03-05T20:19:06.365Z,3.38
2023-03-05T20:21:36.134Z,3.36
2023-03-05T20:24:09.510Z,3.36
2023-03-05T20:26:37.904Z,3.36
2023-03-05T20:29:05.323Z,3.37
2023-03-05T20:31:37.003Z,3.36
2023-03-05T20:34:07.996Z,3.36
2023-03-05T20:36:35.270Z,3.36
2023-03-05T20:39:03.440Z,3.34
2023-03-05T20:41:30.814Z,3.37
2023-03-05T20:43:57.842Z,3.38
2023-03-05T20:46:33.371Z,3.36
2023-03-05T20:49:01.581Z,3.35
2023-03-05T20:51:38.198Z,3.35
2023-03-05T20:54:11.355Z,3.36
2023-03-05T20:56:38.166Z,3.37
2023-03-05T20:59:08.514Z,3.37
2023-03-05T21:01:37.513Z,3.37
2023-03-05T21:04:06.918Z,3.35
2023-03-05T21:06:34.337Z,3.33
2023-03-05T21:09:01.456Z,3.32
2023-03-05T21:11:28.399Z,3.32
2023-03-05T21:13:54.878Z,3.34
2023-03-05T21:16:24.571Z,3.33
2023-03-05T21:18:52.093Z,3.29
2023-03-05T21:21:19.314Z,3.32
2023-03-05T21:23:47.106Z,3.31
2023-03-05T21:26:13.890Z,3.28
2023-03-05T21:28:40.927Z,3.27
2023-03-05T21:31:10.159Z,3.25
2023-03-05T21:33:37.311Z,3.27
2023-03-05T21:36:04.549Z,3.23
2023-03-05T21:38:33.906Z,3.21
2023-03-05T21:41:01.121Z,3.22
2023-03-05T21:43:30.359Z,3.22
2023-03-05T21:45:58.553Z,3.18
2023-03-05T21:48:25.398Z,3.14
2023-03-05T21:50:52.643Z,3.12
2023-03-05T21:53:19.914Z,3.11
2023-03-05T21:55:59.876Z,3.11
2023-03-05T21:58:32.567Z,3.08
2023-03-05T22:00:59.606Z,3.05
2023-03-05T22:03:27.531Z,3.05
2023-03-05T22:05:54.769Z,3.01
2023-03-05T22:08:24.299Z,3.01
2023-03-05T22:10:50.882Z,2.95
2023-03-05T22:13:19.871Z,2.90
2023-03-05T22:15:48.400Z,2.88
2023-03-05T22:18:23.611Z,2.87
2023-03-05T22:20:51.272Z,2.81
2023-03-05T22:23:18.677Z,2.79
2023-03-05T22:25:45.326Z,2.77
2023-03-05T22:28:12.939Z,2.76
2023-03-05T22:30:46.493Z,2.77
2023-03-05T22:33:13.418Z,2.75
2023-03-05T22:35:41.020Z,2.74
2023-03-05T22:38:15.067Z,2.73
2023-03-05T22:40:44.107Z,2.73
2023-03-05T22:43:11.506Z,2.76
2023-03-05T22:45:41.675Z,2.76
2023-03-05T22:48:09.967Z,2.75
2023-03-05T22:50:40.952Z,2.75
2023-03-05T22:53:08.175Z,2.73
2023-03-05T22:55:37.819Z,2.70
2023-03-05T22:58:04.327Z,2.68
2023-03-05T23:00:30.803Z,2.67
2023-03-05T23:03:00.295Z,2.67
2023-03-05T23:05:26.962Z,2.61
2023-03-05T23:07:53.442Z,2.61
2023-03-05T23:10:26.929Z,2.59
2023-03-05T23:12:55.914Z,2.58
2023-03-05T23:15:32.020Z,2.58
2023-03-05T23:17:59.200Z,2.58
2023-03-05T23:20:28.383Z,2.61
2023-03-05T23:22:59.296Z,2.61
2023-03-05T23:25:29.245Z,2.63
2023-03-05T23:27:58.106Z,2.67
2023-03-05T23:30:29.944Z,2.70
2023-03-05T23:33:16.973Z,2.72
2023-03-05T23:36:06.046Z,2.75
2023-03-05T23:38:36.622Z,2.75
2023-03-05T23:41:06.816Z,2.74
2023-03-05T23:43:33.374Z,2.76
2023-03-05T23:46:01.478Z,2.76
2023-03-05T23:48:29.509Z,2.79
2023-03-05T23:50:55.978Z,2.79
2023-03-05T23:53:28.092Z,2.80
2023-03-05T23:55:59.893Z,2.79
2023-03-05T23:58:26.479Z,2.81
